Eastern Galaxy — DUCH — position and weather

sailwx.info

Track history (hours):
 
Tides and Currents Weather Stations Pressure Air Temp Water Temp Dewpoint Dewpoint Depression Visibility Wind Speed Wind Dir Waves Ship Positions

Eastern Galaxy

Last reported at 2016-Aug-09 14:31 UTC. Time now 2016-Aug-27 08:14 UTC.
Position N 34°31' E 138°58'.
Warning: this ship's position is 17 days out of date.

Length 100 m; draft 5.7 m.

Type: Cargo ship. MMSI: 548829000.

Date/timePositionNaut miles runAvg speedWind from/ knotsBaromVisibWave heightAir tempDewpointWater temp
2016-Aug-09 14:31N 34°31' E 138°58'2512.3
2016-Aug-09 12:31N 34°50' E 139°17'1111.9
2016-Aug-09 11:33N 34°58' E 139°28'1111.4
2016-Aug-09 10:33N 35°03' E 139°40'1110.8
2016-Aug-09 09:34N 35°13' E 139°46'1110.9
2016-Aug-09 08:33N 35°23' E 139°42'4 4.1
2016-Aug-09 07:33N 35°27' E 139°41'0 0.0
2016-Aug-09 05:33N 35°27' E 139°41'0 0.0
2016-Aug-09 04:33N 35°27' E 139°41'0 0.0
2016-Aug-09 03:30N 35°27' E 139°41'0 0.0
2016-Aug-09 02:33N 35°27' E 139°41'0 0.0
2016-Aug-09 01:33N 35°27' E 139°41'0 0.0
2016-Aug-09 00:33N 35°27' E 139°41'0 0.0
2016-Aug-08 23:33N 35°27' E 139°41'0 0.0
2016-Aug-08 22:33N 35°27' E 139°41'0 0.0
2016-Aug-08 21:33N 35°27' E 139°41'0 0.0
2016-Aug-08 20:33N 35°27' E 139°41'0 0.0
2016-Aug-08 19:33N 35°27' E 139°41'0 0.0
2016-Aug-08 18:33N 35°27' E 139°41'0 0.0
2016-Aug-08 17:33N 35°27' E 139°41'0 0.0
2016-Aug-08 16:33N 35°27' E 139°41'0 0.0
2016-Aug-08 15:33N 35°27' E 139°41'0 0.0
2016-Aug-08 14:33N 35°27' E 139°41'0 0.0
2016-Aug-08 13:33N 35°27' E 139°41'0 0.0
2016-Aug-08 12:33N 35°27' E 139°41'0 0.0
2016-Aug-08 11:33N 35°27' E 139°41'0 0.0
2016-Aug-08 10:33N 35°27' E 139°41'0 0.0
2016-Aug-08 09:33N 35°27' E 139°41'0 0.0
2016-Aug-08 08:33N 35°27' E 139°41'0 0.0
2016-Aug-08 07:33N 35°27' E 139°41'0 0.0
2016-Aug-08 06:33N 35°27' E 139°41'0 0.0
2016-Aug-08 05:33N 35°27' E 139°41'4 4.1
2016-Aug-08 04:33N 35°24' E 139°43'1010.1
2016-Aug-08 03:33N 35°14' E 139°47'1010.1
2016-Aug-08 02:33N 35°04' E 139°44'245 9.1
2016-Aug-06 23:32N 34°01' E 134°57'1313.3
2016-Aug-06 22:33N 34°14' E 134°58'1212.3
2016-Aug-06 21:33N 34°25' E 135°05'1313.3
2016-Aug-06 20:33N 34°34' E 135°17'9 7.3
2016-Aug-06 19:18N 34°39' E 135°26'0 0.0
2016-Aug-06 18:30N 34°39' E 135°26'0 0.0
2016-Aug-06 17:30N 34°39' E 135°26'0 0.0
2016-Aug-06 16:30N 34°39' E 135°26'0 0.0
2016-Aug-06 15:30N 34°39' E 135°26'0 0.0
2016-Aug-06 14:30N 34°39' E 135°26'0 0.0
2016-Aug-06 13:30N 34°39' E 135°26'0 0.0
2016-Aug-06 12:30N 34°39' E 135°26'0 0.0
2016-Aug-06 11:30N 34°39' E 135°26'0 0.1
2016-Aug-06 10:30N 34°39' E 135°26'0 0.1
2016-Aug-06 09:24N 34°39' E 135°26'0 0.0
2016-Aug-06 08:30N 34°39' E 135°26'0 0.0
2016-Aug-06 07:30N 34°39' E 135°26'0 0.0
2016-Aug-06 04:30N 34°39' E 135°26'0 0.0
2016-Aug-06 03:30N 34°39' E 135°26'0 0.0
2016-Aug-06 02:30N 34°39' E 135°26'0 0.1
2016-Aug-06 01:33N 34°39' E 135°26'3210.5
2016-Aug-05 22:33N 34°17' E 134°59'  
Track history (hours):
 
Tides and Currents Weather Stations Pressure Air Temp Water Temp Dewpoint Dewpoint Depression Visibility Wind Speed Wind Dir Waves Ship Positions

Eastern Galaxy

Last reported at 2016-Aug-09 14:31 UTC. Time now 2016-Aug-27 08:14 UTC.
Position N 34°31' E 138°58'.
Warning: this ship's position is 17 days out of date.

Length 100 m; draft 5.7 m.

Type: Cargo ship. MMSI: 548829000.

Date/timePositionNaut miles runAvg speedWind from/ knotsBaromVisibWave heightAir tempDewpointWater temp
2016-Aug-09 14:31N 34°31' E 138°58'2512.3
2016-Aug-09 12:31N 34°50' E 139°17'1111.9
2016-Aug-09 11:33N 34°58' E 139°28'1111.4
2016-Aug-09 10:33N 35°03' E 139°40'1110.8
2016-Aug-09 09:34N 35°13' E 139°46'1110.9
2016-Aug-09 08:33N 35°23' E 139°42'4 4.1
2016-Aug-09 07:33N 35°27' E 139°41'0 0.0
2016-Aug-09 05:33N 35°27' E 139°41'0 0.0
2016-Aug-09 04:33N 35°27' E 139°41'0 0.0
2016-Aug-09 03:30N 35°27' E 139°41'0 0.0
2016-Aug-09 02:33N 35°27' E 139°41'0 0.0
2016-Aug-09 01:33N 35°27' E 139°41'0 0.0
2016-Aug-09 00:33N 35°27' E 139°41'0 0.0
2016-Aug-08 23:33N 35°27' E 139°41'0 0.0
2016-Aug-08 22:33N 35°27' E 139°41'0 0.0
2016-Aug-08 21:33N 35°27' E 139°41'0 0.0
2016-Aug-08 20:33N 35°27' E 139°41'0 0.0
2016-Aug-08 19:33N 35°27' E 139°41'0 0.0
2016-Aug-08 18:33N 35°27' E 139°41'0 0.0
2016-Aug-08 17:33N 35°27' E 139°41'0 0.0
2016-Aug-08 16:33N 35°27' E 139°41'0 0.0
2016-Aug-08 15:33N 35°27' E 139°41'0 0.0
2016-Aug-08 14:33N 35°27' E 139°41'0 0.0
2016-Aug-08 13:33N 35°27' E 139°41'0 0.0
2016-Aug-08 12:33N 35°27' E 139°41'0 0.0
2016-Aug-08 11:33N 35°27' E 139°41'0 0.0
2016-Aug-08 10:33N 35°27' E 139°41'0 0.0
2016-Aug-08 09:33N 35°27' E 139°41'0 0.0
2016-Aug-08 08:33N 35°27' E 139°41'0 0.0
2016-Aug-08 07:33N 35°27' E 139°41'0 0.0
2016-Aug-08 06:33N 35°27' E 139°41'0 0.0
2016-Aug-08 05:33N 35°27' E 139°41'4 4.1
2016-Aug-08 04:33N 35°24' E 139°43'1010.1
2016-Aug-08 03:33N 35°14' E 139°47'1010.1
2016-Aug-08 02:33N 35°04' E 139°44'245 9.1
2016-Aug-06 23:32N 34°01' E 134°57'1313.3
2016-Aug-06 22:33N 34°14' E 134°58'1212.3
2016-Aug-06 21:33N 34°25' E 135°05'1313.3
2016-Aug-06 20:33N 34°34' E 135°17'9 7.3
2016-Aug-06 19:18N 34°39' E 135°26'0 0.0
2016-Aug-06 18:30N 34°39' E 135°26'0 0.0
2016-Aug-06 17:30N 34°39' E 135°26'0 0.0
2016-Aug-06 16:30N 34°39' E 135°26'0 0.0
2016-Aug-06 15:30N 34°39' E 135°26'0 0.0
2016-Aug-06 14:30N 34°39' E 135°26'0 0.0
2016-Aug-06 13:30N 34°39' E 135°26'0 0.0
2016-Aug-06 12:30N 34°39' E 135°26'0 0.0
2016-Aug-06 11:30N 34°39' E 135°26'0 0.1
2016-Aug-06 10:30N 34°39' E 135°26'0 0.1
2016-Aug-06 09:24N 34°39' E 135°26'0 0.0
2016-Aug-06 08:30N 34°39' E 135°26'0 0.0
2016-Aug-06 07:30N 34°39' E 135°26'0 0.0
2016-Aug-06 04:30N 34°39' E 135°26'0 0.0
2016-Aug-06 03:30N 34°39' E 135°26'0 0.0
2016-Aug-06 02:30N 34°39' E 135°26'0 0.1
2016-Aug-06 01:33N 34°39' E 135°26'3210.5
2016-Aug-05 22:33N 34°17' E 134°59'  

Dump ship's entire track history